sensor_id;sensor_type;location;lat;lon;timestamp;temperature;humidity
4596;DHT22;2310;49.978;8.742;2022-10-15T00:03:40;16.70;99.90
4596;DHT22;2310;49.978;8.742;2022-10-15T00:07:41;16.80;99.90
4596;DHT22;2310;49.978;8.742;2022-10-15T00:11:42;16.60;99.90
4596;DHT22;2310;49.978;8.742;2022-10-15T00:15:43;16.70;99.90
4596;DHT22;2310;49.978;8.742;2022-10-15T00:19:45;16.60;99.90
4596;DHT22;2310;49.978;8.742;2022-10-15T00:23:47;16.70;99.90
4596;DHT22;2310;49.978;8.742;2022-10-15T00:27:48;16.80;99.90
4596;DHT22;2310;49.978;8.742;2022-10-15T00:31:50;16.90;99.90
4596;DHT22;2310;49.978;8.742;2022-10-15T00:36:02;16.80;99.90
4596;DHT22;2310;49.978;8.742;2022-10-15T00:40:04;16.70;99.90
4596;DHT22;2310;49.978;8.742;2022-10-15T00:48:30;17.00;99.90
4596;DHT22;2310;49.978;8.742;2022-10-15T00:52:45;16.80;99.90
4596;DHT22;2310;49.978;8.742;2022-10-15T00:56:46;16.70;99.90
4596;DHT22;2310;49.978;8.742;2022-10-15T01:00:49;16.50;99.90
4596;DHT22;2310;49.978;8.742;2022-10-15T01:04:50;16.70;99.90
4596;DHT22;2310;49.978;8.742;2022-10-15T01:08:51;16.70;99.90
4596;DHT22;2310;49.978;8.742;2022-10-15T01:13:14;16.80;99.90
4596;DHT22;2310;49.978;8.742;2022-10-15T01:17:39;16.70;99.90
4596;DHT22;2310;49.978;8.742;2022-10-15T01:21:45;16.90;99.90
4596;DHT22;2310;49.978;8.742;2022-10-15T01:34:23;16.90;99.90
4596;DHT22;2310;49.978;8.742;2022-10-15T01:38:32;16.80;99.90
4596;DHT22;2310;49.978;8.742;2022-10-15T01:42:38;16.90;99.90
4596;DHT22;2310;49.978;8.742;2022-10-15T01:46:53;16.80;99.90
4596;DHT22;2310;49.978;8.742;2022-10-15T01:50:57;17.00;99.90
4596;DHT22;2310;49.978;8.742;2022-10-15T01:55:01;17.10;99.90
4596;DHT22;2310;49.978;8.742;2022-10-15T01:59:04;16.90;99.90
4596;DHT22;2310;49.978;8.742;2022-10-15T02:03:06;17.00;99.90
4596;DHT22;2310;49.978;8.742;2022-10-15T02:11:16;16.80;99.90
4596;DHT22;2310;49.978;8.742;2022-10-15T02:19:56;17.00;99.90
4596;DHT22;2310;49.978;8.742;2022-10-15T02:24:10;17.10;99.90
4596;DHT22;2310;49.978;8.742;2022-10-15T02:28:13;16.90;99.90
4596;DHT22;2310;49.978;8.742;2022-10-15T02:32:18;16.70;99.90
4596;DHT22;2310;49.978;8.742;2022-10-15T02:36:20;16.80;99.90
4596;DHT22;2310;49.978;8.742;2022-10-15T02:40:24;16.90;99.90
4596;DHT22;2310;49.978;8.742;2022-10-15T02:44:27;17.00;99.90
4596;DHT22;2310;49.978;8.742;2022-10-15T02:48:28;17.10;99.90
4596;DHT22;2310;49.978;8.742;2022-10-15T02:52:29;17.00;99.90
4596;DHT22;2310;49.978;8.742;2022-10-15T02:56:30;17.10;99.90
4596;DHT22;2310;49.978;8.742;2022-10-15T03:00:32;17.20;99.90
4596;DHT22;2310;49.978;8.742;2022-10-15T03:04:33;17.10;99.90
4596;DHT22;2310;49.978;8.742;2022-10-15T03:08:34;17.20;99.90
4596;DHT22;2310;49.978;8.742;2022-10-15T03:12:36;17.20;99.90
4596;DHT22;2310;49.978;8.742;2022-10-15T03:16:37;17.30;99.90
4596;DHT22;2310;49.978;8.742;2022-10-15T03:20:38;17.20;99.90
4596;DHT22;2310;49.978;8.742;2022-10-15T03:24:39;17.10;99.90
4596;DHT22;2310;49.978;8.742;2022-10-15T03:28:40;17.10;99.90
4596;DHT22;2310;49.978;8.742;2022-10-15T03:32:42;17.10;99.90
4596;DHT22;2310;49.978;8.742;2022-10-15T03:36:44;17.20;99.90
4596;DHT22;2310;49.978;8.742;2022-10-15T03:40:45;17.20;99.90
4596;DHT22;2310;49.978;8.742;2022-10-15T03:44:46;17.10;99.90
4596;DHT22;2310;49.978;8.742;2022-10-15T03:48:49;17.20;99.90
4596;DHT22;2310;49.978;8.742;2022-10-15T03:52:50;17.20;99.90
4596;DHT22;2310;49.978;8.742;2022-10-15T03:56:51;17.10;99.90
4596;DHT22;2310;49.978;8.742;2022-10-15T04:00:52;17.10;99.90
4596;DHT22;2310;49.978;8.742;2022-10-15T04:04:54;17.10;99.90
4596;DHT22;2310;49.978;8.742;2022-10-15T04:08:55;17.20;99.90
4596;DHT22;2310;49.978;8.742;2022-10-15T04:12:56;17.10;99.90
4596;DHT22;2310;49.978;8.742;2022-10-15T04:16:57;17.10;99.90
4596;DHT22;2310;49.978;8.742;2022-10-15T04:21:00;16.90;99.90
4596;DHT22;2310;49.978;8.742;2022-10-15T04:25:01;17.10;99.90
4596;DHT22;2310;49.978;8.742;2022-10-15T04:29:02;17.10;99.90
4596;DHT22;2310;49.978;8.742;2022-10-15T04:33:03;16.90;99.90
4596;DHT22;2310;49.978;8.742;2022-10-15T04:37:05;17.00;99.90
4596;DHT22;2310;49.978;8.742;2022-10-15T04:41:08;17.10;99.90
4596;DHT22;2310;49.978;8.742;2022-10-15T04:45:10;17.10;99.90
4596;DHT22;2310;49.978;8.742;2022-10-15T04:49:11;17.20;99.90
4596;DHT22;2310;49.978;8.742;2022-10-15T04:53:12;17.10;99.90
4596;DHT22;2310;49.978;8.742;2022-10-15T04:57:14;17.10;99.90
4596;DHT22;2310;49.978;8.742;2022-10-15T05:01:18;17.10;99.90
4596;DHT22;2310;49.978;8.742;2022-10-15T05:05:19;16.90;99.90
4596;DHT22;2310;49.978;8.742;2022-10-15T05:09:20;16.90;99.90
4596;DHT22;2310;49.978;8.742;2022-10-15T05:13:22;17.00;99.90
4596;DHT22;2310;49.978;8.742;2022-10-15T05:17:23;17.10;99.90
4596;DHT22;2310;49.978;8.742;2022-10-15T05:21:25;17.10;99.90
4596;DHT22;2310;49.978;8.742;2022-10-15T05:25:26;17.10;99.90
4596;DHT22;2310;49.978;8.742;2022-10-15T05:29:28;16.90;99.90
4596;DHT22;2310;49.978;8.742;2022-10-15T05:33:29;17.10;99.90
4596;DHT22;2310;49.978;8.742;2022-10-15T05:37:30;17.10;99.90
4596;DHT22;2310;49.978;8.742;2022-10-15T05:41:31;17.10;99.90
4596;DHT22;2310;49.978;8.742;2022-10-15T05:45:32;17.20;99.90
4596;DHT22;2310;49.978;8.742;2022-10-15T05:49:33;17.10;99.90
4596;DHT22;2310;49.978;8.742;2022-10-15T05:53:35;17.20;99.90
4596;DHT22;2310;49.978;8.742;2022-10-15T05:57:36;17.10;99.90
4596;DHT22;2310;49.978;8.742;2022-10-15T06:01:37;17.10;99.90
4596;DHT22;2310;49.978;8.742;2022-10-15T06:05:39;17.00;99.90
4596;DHT22;2310;49.978;8.742;2022-10-15T06:09:40;17.00;99.90
4596;DHT22;2310;49.978;8.742;2022-10-15T06:13:42;17.00;99.90
4596;DHT22;2310;49.978;8.742;2022-10-15T06:17:43;17.00;99.90
4596;DHT22;2310;49.978;8.742;2022-10-15T06:21:44;16.70;99.90
4596;DHT22;2310;49.978;8.742;2022-10-15T06:25:46;16.90;99.90
4596;DHT22;2310;49.978;8.742;2022-10-15T06:29:47;16.90;99.90
4596;DHT22;2310;49.978;8.742;2022-10-15T06:33:48;16.90;99.90
4596;DHT22;2310;49.978;8.742;2022-10-15T06:37:49;17.00;99.90
4596;DHT22;2310;49.978;8.742;2022-10-15T06:41:51;16.90;99.90
4596;DHT22;2310;49.978;8.742;2022-10-15T06:45:52;16.80;99.90
4596;DHT22;2310;49.978;8.742;2022-10-15T06:49:53;16.70;99.90
4596;DHT22;2310;49.978;8.742;2022-10-15T06:53:54;16.70;99.90
4596;DHT22;2310;49.978;8.742;2022-10-15T06:57:55;16.70;99.90
4596;DHT22;2310;49.978;8.742;2022-10-15T07:01:57;16.90;99.90
4596;DHT22;2310;49.978;8.742;2022-10-15T07:06:02;16.80;99.90
4596;DHT22;2310;49.978;8.742;2022-10-15T07:10:04;17.00;99.90
4596;DHT22;2310;49.978;8.742;2022-10-15T07:14:06;17.10;99.90
4596;DHT22;2310;49.978;8.742;2022-10-15T07:18:07;17.20;99.90
4596;DHT22;2310;49.978;8.742;2022-10-15T07:22:09;17.20;99.90
4596;DHT22;2310;49.978;8.742;2022-10-15T07:26:10;17.10;99.90
4596;DHT22;2310;49.978;8.742;2022-10-15T07:30:12;17.20;99.90
4596;DHT22;2310;49.978;8.742;2022-10-15T07:34:13;17.10;99.90
4596;DHT22;2310;49.978;8.742;2022-10-15T07:38:14;17.30;99.90
4596;DHT22;2310;49.978;8.742;2022-10-15T07:42:17;17.30;99.90
4596;DHT22;2310;49.978;8.742;2022-10-15T07:46:19;17.30;99.90
4596;DHT22;2310;49.978;8.742;2022-10-15T07:50:20;17.40;99.90
4596;DHT22;2310;49.978;8.742;2022-10-15T07:54:21;17.50;99.90
4596;DHT22;2310;49.978;8.742;2022-10-15T07:58:23;17.40;99.90
4596;DHT22;2310;49.978;8.742;2022-10-15T08:02:24;17.20;99.90
4596;DHT22;2310;49.978;8.742;2022-10-15T08:06:26;17.50;99.90
4596;DHT22;2310;49.978;8.742;2022-10-15T08:10:28;17.70;99.90
4596;DHT22;2310;49.978;8.742;2022-10-15T08:14:29;17.90;99.90
4596;DHT22;2310;49.978;8.742;2022-10-15T08:18:30;17.90;99.90
4596;DHT22;2310;49.978;8.742;2022-10-15T08:22:32;17.80;99.90
4596;DHT22;2310;49.978;8.742;2022-10-15T08:26:34;17.60;99.90
4596;DHT22;2310;49.978;8.742;2022-10-15T08:30:36;17.30;99.90
4596;DHT22;2310;49.978;8.742;2022-10-15T08:34:37;17.30;99.90
4596;DHT22;2310;49.978;8.742;2022-10-15T08:38:38;17.30;99.90
4596;DHT22;2310;49.978;8.742;2022-10-15T08:42:41;17.40;99.90
4596;DHT22;2310;49.978;8.742;2022-10-15T08:46:45;17.80;99.90
4596;DHT22;2310;49.978;8.742;2022-10-15T08:51:00;17.90;99.90
4596;DHT22;2310;49.978;8.742;2022-10-15T08:55:01;18.10;99.90
4596;DHT22;2310;49.978;8.742;2022-10-15T08:59:27;18.40;99.90
4596;DHT22;2310;49.978;8.742;2022-10-15T09:03:37;18.10;99.90
4596;DHT22;2310;49.978;8.742;2022-10-15T09:07:47;18.10;99.90
4596;DHT22;2310;49.978;8.742;2022-10-15T09:11:58;18.20;99.90
4596;DHT22;2310;49.978;8.742;2022-10-15T09:16:02;18.00;99.90
4596;DHT22;2310;49.978;8.742;2022-10-15T09:20:12;18.30;99.90
4596;DHT22;2310;49.978;8.742;2022-10-15T09:24:11;18.30;99.90
4596;DHT22;2310;49.978;8.742;2022-10-15T09:28:15;18.50;99.90
4596;DHT22;2310;49.978;8.742;2022-10-15T09:32:38;18.60;99.90
4596;DHT22;2310;49.978;8.742;2022-10-15T09:36:45;18.30;99.90
4596;DHT22;2310;49.978;8.742;2022-10-15T09:45:13;18.30;99.90
4596;DHT22;2310;49.978;8.742;2022-10-15T09:49:24;18.40;99.90
4596;DHT22;2310;49.978;8.742;2022-10-15T09:57:30;18.30;99.90
4596;DHT22;2310;49.978;8.742;2022-10-15T10:01:33;18.40;99.90
4596;DHT22;2310;49.978;8.742;2022-10-15T10:05:35;18.30;99.90
4596;DHT22;2310;49.978;8.742;2022-10-15T10:09:47;18.40;99.90
4596;DHT22;2310;49.978;8.742;2022-10-15T10:13:58;18.70;99.90
4596;DHT22;2310;49.978;8.742;2022-10-15T10:18:01;19.00;99.90
4596;DHT22;2310;49.978;8.742;2022-10-15T10:22:17;19.00;99.90
4596;DHT22;2310;49.978;8.742;2022-10-15T10:26:19;18.90;99.90
4596;DHT22;2310;49.978;8.742;2022-10-15T10:30:21;18.60;99.90
4596;DHT22;2310;49.978;8.742;2022-10-15T10:34:27;18.50;99.90
4596;DHT22;2310;49.978;8.742;2022-10-15T10:38:35;18.60;99.90
4596;DHT22;2310;49.978;8.742;2022-10-15T10:42:37;18.60;99.90
4596;DHT22;2310;49.978;8.742;2022-10-15T10:46:38;18.30;99.90
4596;DHT22;2310;49.978;8.742;2022-10-15T10:50:39;18.00;99.90
4596;DHT22;2310;49.978;8.742;2022-10-15T10:54:41;18.00;99.90
4596;DHT22;2310;49.978;8.742;2022-10-15T10:58:42;18.00;99.90
4596;DHT22;2310;49.978;8.742;2022-10-15T11:02:43;17.80;99.90
4596;DHT22;2310;49.978;8.742;2022-10-15T11:15:27;18.10;99.90
4596;DHT22;2310;49.978;8.742;2022-10-15T11:19:37;18.10;99.90
4596;DHT22;2310;49.978;8.742;2022-10-15T11:45:39;19.30;99.90
4596;DHT22;2310;49.978;8.742;2022-10-15T11:54:35;19.00;99.90
4596;DHT22;2310;49.978;8.742;2022-10-15T11:58:33;18.90;99.90
4596;DHT22;2310;49.978;8.742;2022-10-15T12:02:37;18.60;99.90
4596;DHT22;2310;49.978;8.742;2022-10-15T12:06:41;18.50;99.90
4596;DHT22;2310;49.978;8.742;2022-10-15T12:15:29;18.60;99.90
4596;DHT22;2310;49.978;8.742;2022-10-15T12:19:45;18.70;99.90
4596;DHT22;2310;49.978;8.742;2022-10-15T12:23:46;18.70;99.90
4596;DHT22;2310;49.978;8.742;2022-10-15T12:27:57;18.80;99.90
4596;DHT22;2310;49.978;8.742;2022-10-15T12:31:53;18.80;99.90
4596;DHT22;2310;49.978;8.742;2022-10-15T12:36:06;18.90;99.90
4596;DHT22;2310;49.978;8.742;2022-10-15T12:40:26;18.80;99.90
4596;DHT22;2310;49.978;8.742;2022-10-15T12:44:30;18.70;99.90
4596;DHT22;2310;49.978;8.742;2022-10-15T12:48:37;18.70;99.90
4596;DHT22;2310;49.978;8.742;2022-10-15T12:53:00;18.90;99.90
4596;DHT22;2310;49.978;8.742;2022-10-15T13:05:45;18.70;99.90
4596;DHT22;2310;49.978;8.742;2022-10-15T13:09:49;18.70;99.90
4596;DHT22;2310;49.978;8.742;2022-10-15T13:13:54;18.70;99.90
4596;DHT22;2310;49.978;8.742;2022-10-15T13:17:57;18.50;99.90
4596;DHT22;2310;49.978;8.742;2022-10-15T13:22:04;18.50;99.90
4596;DHT22;2310;49.978;8.742;2022-10-15T13:26:17;18.50;99.90
4596;DHT22;2310;49.978;8.742;2022-10-15T13:30:19;18.60;99.90
4596;DHT22;2310;49.978;8.742;2022-10-15T13:34:32;18.50;99.90
4596;DHT22;2310;49.978;8.742;2022-10-15T13:38:36;18.40;99.90
4596;DHT22;2310;49.978;8.742;2022-10-15T13:42:40;18.60;99.90
4596;DHT22;2310;49.978;8.742;2022-10-15T13:46:43;18.60;99.90
4596;DHT22;2310;49.978;8.742;2022-10-15T13:50:45;18.60;99.90
4596;DHT22;2310;49.978;8.742;2022-10-15T13:54:47;18.50;99.90
4596;DHT22;2310;49.978;8.742;2022-10-15T13:58:49;18.50;99.90
4596;DHT22;2310;49.978;8.742;2022-10-15T14:07:23;18.40;99.90
4596;DHT22;2310;49.978;8.742;2022-10-15T14:11:28;18.30;99.90
4596;DHT22;2310;49.978;8.742;2022-10-15T14:15:39;18.30;99.90
4596;DHT22;2310;49.978;8.742;2022-10-15T14:19:46;18.30;99.90
4596;DHT22;2310;49.978;8.742;2022-10-15T14:23:50;18.50;99.90
4596;DHT22;2310;49.978;8.742;2022-10-15T14:27:51;18.10;99.90
4596;DHT22;2310;49.978;8.742;2022-10-15T14:31:53;17.90;99.90
4596;DHT22;2310;49.978;8.742;2022-10-15T14:40:20;18.00;99.90
4596;DHT22;2310;49.978;8.742;2022-10-15T14:44:21;18.10;99.90
4596;DHT22;2310;49.978;8.742;2022-10-15T14:48:31;18.20;99.90
4596;DHT22;2310;49.978;8.742;2022-10-15T14:52:30;18.30;99.90
4596;DHT22;2310;49.978;8.742;2022-10-15T14:56:33;18.30;99.90
4596;DHT22;2310;49.978;8.742;2022-10-15T15:00:41;18.30;99.90
4596;DHT22;2310;49.978;8.742;2022-10-15T15:04:49;18.30;99.90
4596;DHT22;2310;49.978;8.742;2022-10-15T15:08:48;18.20;99.90
4596;DHT22;2310;49.978;8.742;2022-10-15T15:12:52;18.10;99.90
4596;DHT22;2310;49.978;8.742;2022-10-15T15:16:53;18.20;99.90
4596;DHT22;2310;49.978;8.742;2022-10-15T15:20:57;18.20;99.90
4596;DHT22;2310;49.978;8.742;2022-10-15T15:25:25;18.10;99.90
4596;DHT22;2310;49.978;8.742;2022-10-15T15:29:14;18.10;99.90
4596;DHT22;2310;49.978;8.742;2022-10-15T15:33:15;18.10;99.90
4596;DHT22;2310;49.978;8.742;2022-10-15T15:37:21;18.10;99.90
4596;DHT22;2310;49.978;8.742;2022-10-15T15:41:23;18.10;99.90
4596;DHT22;2310;49.978;8.742;2022-10-15T15:45:26;18.20;99.90
4596;DHT22;2310;49.978;8.742;2022-10-15T15:49:28;18.30;99.90
4596;DHT22;2310;49.978;8.742;2022-10-15T15:53:29;18.20;99.90
4596;DHT22;2310;49.978;8.742;2022-10-15T15:57:31;18.30;99.90
4596;DHT22;2310;49.978;8.742;2022-10-15T16:01:32;18.10;99.90
4596;DHT22;2310;49.978;8.742;2022-10-15T16:05:34;18.00;99.90
4596;DHT22;2310;49.978;8.742;2022-10-15T16:09:35;18.00;99.90
4596;DHT22;2310;49.978;8.742;2022-10-15T16:13:37;18.00;99.90
4596;DHT22;2310;49.978;8.742;2022-10-15T16:17:38;18.00;99.90
4596;DHT22;2310;49.978;8.742;2022-10-15T16:21:39;18.20;99.90
4596;DHT22;2310;49.978;8.742;2022-10-15T16:25:41;18.20;99.90
4596;DHT22;2310;49.978;8.742;2022-10-15T16:29:42;18.20;99.90
4596;DHT22;2310;49.978;8.742;2022-10-15T16:33:44;18.10;99.90
4596;DHT22;2310;49.978;8.742;2022-10-15T16:37:45;18.10;99.90
4596;DHT22;2310;49.978;8.742;2022-10-15T16:41:46;18.00;99.90
4596;DHT22;2310;49.978;8.742;2022-10-15T16:45:55;17.90;99.90
4596;DHT22;2310;49.978;8.742;2022-10-15T16:49:56;17.80;99.90
4596;DHT22;2310;49.978;8.742;2022-10-15T16:53:58;17.90;99.90
4596;DHT22;2310;49.978;8.742;2022-10-15T16:57:59;18.00;99.90
4596;DHT22;2310;49.978;8.742;2022-10-15T17:02:00;18.00;99.90
4596;DHT22;2310;49.978;8.742;2022-10-15T17:06:04;18.00;99.90
4596;DHT22;2310;49.978;8.742;2022-10-15T17:10:07;17.90;99.90
4596;DHT22;2310;49.978;8.742;2022-10-15T17:14:13;17.80;99.90
4596;DHT22;2310;49.978;8.742;2022-10-15T17:18:14;17.80;99.90
4596;DHT22;2310;49.978;8.742;2022-10-15T17:22:16;17.80;99.90
4596;DHT22;2310;49.978;8.742;2022-10-15T17:26:20;17.90;99.90
4596;DHT22;2310;49.978;8.742;2022-10-15T17:30:22;17.90;99.90
4596;DHT22;2310;49.978;8.742;2022-10-15T17:34:23;18.00;99.90
4596;DHT22;2310;49.978;8.742;2022-10-15T17:38:25;18.10;99.90
4596;DHT22;2310;49.978;8.742;2022-10-15T17:42:26;18.10;99.90
4596;DHT22;2310;49.978;8.742;2022-10-15T17:46:29;17.90;99.90
4596;DHT22;2310;49.978;8.742;2022-10-15T17:50:30;18.10;99.90
4596;DHT22;2310;49.978;8.742;2022-10-15T17:54:32;18.00;99.90
4596;DHT22;2310;49.978;8.742;2022-10-15T17:58:33;18.00;99.90
4596;DHT22;2310;49.978;8.742;2022-10-15T18:02:34;18.00;99.90
4596;DHT22;2310;49.978;8.742;2022-10-15T18:06:35;17.90;99.90
4596;DHT22;2310;49.978;8.742;2022-10-15T18:10:36;17.90;99.90
4596;DHT22;2310;49.978;8.742;2022-10-15T18:14:37;17.90;99.90
4596;DHT22;2310;49.978;8.742;2022-10-15T18:18:39;17.90;99.90
4596;DHT22;2310;49.978;8.742;2022-10-15T18:22:40;17.90;99.90
4596;DHT22;2310;49.978;8.742;2022-10-15T18:26:42;18.10;99.90
4596;DHT22;2310;49.978;8.742;2022-10-15T18:30:43;18.00;99.90
4596;DHT22;2310;49.978;8.742;2022-10-15T18:34:45;18.00;99.90
4596;DHT22;2310;49.978;8.742;2022-10-15T18:38:46;18.00;99.90
4596;DHT22;2310;49.978;8.742;2022-10-15T18:42:47;18.00;99.90
4596;DHT22;2310;49.978;8.742;2022-10-15T18:46:49;17.90;99.90
4596;DHT22;2310;49.978;8.742;2022-10-15T18:50:51;17.90;99.90
4596;DHT22;2310;49.978;8.742;2022-10-15T18:54:54;17.90;99.90
4596;DHT22;2310;49.978;8.742;2022-10-15T18:58:55;17.90;99.90
4596;DHT22;2310;49.978;8.742;2022-10-15T19:02:56;18.00;99.90
4596;DHT22;2310;49.978;8.742;2022-10-15T19:06:57;17.90;99.90
4596;DHT22;2310;49.978;8.742;2022-10-15T19:11:05;17.90;99.90
4596;DHT22;2310;49.978;8.742;2022-10-15T19:15:07;17.90;99.90
4596;DHT22;2310;49.978;8.742;2022-10-15T19:19:11;17.70;99.90
4596;DHT22;2310;49.978;8.742;2022-10-15T19:23:12;17.70;99.90
4596;DHT22;2310;49.978;8.742;2022-10-15T19:27:14;17.70;99.90
4596;DHT22;2310;49.978;8.742;2022-10-15T19:31:19;17.70;99.90
4596;DHT22;2310;49.978;8.742;2022-10-15T19:35:20;17.80;99.90
4596;DHT22;2310;49.978;8.742;2022-10-15T19:39:22;17.80;99.90
4596;DHT22;2310;49.978;8.742;2022-10-15T19:43:23;17.80;99.90
4596;DHT22;2310;49.978;8.742;2022-10-15T19:47:25;17.70;99.90
4596;DHT22;2310;49.978;8.742;2022-10-15T19:51:26;17.90;99.90
4596;DHT22;2310;49.978;8.742;2022-10-15T19:55:28;17.70;99.90
4596;DHT22;2310;49.978;8.742;2022-10-15T19:59:29;17.60;99.90
4596;DHT22;2310;49.978;8.742;2022-10-15T20:03:31;17.80;99.90
4596;DHT22;2310;49.978;8.742;2022-10-15T20:07:32;17.70;99.90
4596;DHT22;2310;49.978;8.742;2022-10-15T20:11:35;17.90;99.90
4596;DHT22;2310;49.978;8.742;2022-10-15T20:15:43;17.90;99.90
4596;DHT22;2310;49.978;8.742;2022-10-15T20:19:46;17.80;99.90
4596;DHT22;2310;49.978;8.742;2022-10-15T20:23:47;18.00;99.90
4596;DHT22;2310;49.978;8.742;2022-10-15T20:27:48;17.90;99.90
4596;DHT22;2310;49.978;8.742;2022-10-15T20:31:50;17.90;99.90
4596;DHT22;2310;49.978;8.742;2022-10-15T20:35:52;18.00;99.90
4596;DHT22;2310;49.978;8.742;2022-10-15T20:39:53;17.90;99.90
4596;DHT22;2310;49.978;8.742;2022-10-15T20:43:55;17.80;99.90
4596;DHT22;2310;49.978;8.742;2022-10-15T20:47:56;17.80;99.90
4596;DHT22;2310;49.978;8.742;2022-10-15T20:51:58;17.70;99.90
4596;DHT22;2310;49.978;8.742;2022-10-15T20:56:00;17.80;99.90
4596;DHT22;2310;49.978;8.742;2022-10-15T21:00:02;17.70;99.90
4596;DHT22;2310;49.978;8.742;2022-10-15T21:04:04;17.30;99.90
4596;DHT22;2310;49.978;8.742;2022-10-15T21:08:05;17.20;99.90
4596;DHT22;2310;49.978;8.742;2022-10-15T21:12:06;17.30;99.90
4596;DHT22;2310;49.978;8.742;2022-10-15T21:16:10;17.20;99.90
4596;DHT22;2310;49.978;8.742;2022-10-15T21:20:11;17.10;99.90
4596;DHT22;2310;49.978;8.742;2022-10-15T21:24:12;17.10;99.90
4596;DHT22;2310;49.978;8.742;2022-10-15T21:28:14;17.10;99.90
4596;DHT22;2310;49.978;8.742;2022-10-15T21:32:15;17.30;99.90
4596;DHT22;2310;49.978;8.742;2022-10-15T21:36:22;17.20;99.90
4596;DHT22;2310;49.978;8.742;2022-10-15T21:40:24;17.10;99.90
4596;DHT22;2310;49.978;8.742;2022-10-15T21:44:26;17.10;99.90
4596;DHT22;2310;49.978;8.742;2022-10-15T21:48:27;17.20;99.90
4596;DHT22;2310;49.978;8.742;2022-10-15T21:52:28;17.00;99.90
4596;DHT22;2310;49.978;8.742;2022-10-15T21:56:30;17.10;99.90
4596;DHT22;2310;49.978;8.742;2022-10-15T22:00:31;17.20;99.90
4596;DHT22;2310;49.978;8.742;2022-10-15T22:04:33;17.20;99.90
4596;DHT22;2310;49.978;8.742;2022-10-15T22:08:35;17.10;99.90
4596;DHT22;2310;49.978;8.742;2022-10-15T22:12:36;17.00;99.90
4596;DHT22;2310;49.978;8.742;2022-10-15T22:16:39;17.10;99.90
4596;DHT22;2310;49.978;8.742;2022-10-15T22:20:40;17.10;99.90
4596;DHT22;2310;49.978;8.742;2022-10-15T22:24:41;17.20;99.90
4596;DHT22;2310;49.978;8.742;2022-10-15T22:28:43;17.10;99.90
4596;DHT22;2310;49.978;8.742;2022-10-15T22:32:44;17.20;99.90
4596;DHT22;2310;49.978;8.742;2022-10-15T22:36:46;17.20;99.90
4596;DHT22;2310;49.978;8.742;2022-10-15T22:40:52;17.40;99.90
4596;DHT22;2310;49.978;8.742;2022-10-15T22:44:54;17.60;99.90
4596;DHT22;2310;49.978;8.742;2022-10-15T22:48:55;17.60;99.90
4596;DHT22;2310;49.978;8.742;2022-10-15T22:52:56;17.60;99.90
4596;DHT22;2310;49.978;8.742;2022-10-15T22:56:58;17.70;99.90
4596;DHT22;2310;49.978;8.742;2022-10-15T23:01:22;17.70;99.90
4596;DHT22;2310;49.978;8.742;2022-10-15T23:05:25;17.60;99.90
4596;DHT22;2310;49.978;8.742;2022-10-15T23:09:26;17.60;99.90
4596;DHT22;2310;49.978;8.742;2022-10-15T23:13:30;17.70;99.90
4596;DHT22;2310;49.978;8.742;2022-10-15T23:17:32;17.70;99.90
4596;DHT22;2310;49.978;8.742;2022-10-15T23:21:45;17.50;99.90
4596;DHT22;2310;49.978;8.742;2022-10-15T23:25:47;17.50;99.90
4596;DHT22;2310;49.978;8.742;2022-10-15T23:29:48;17.40;99.90
4596;DHT22;2310;49.978;8.742;2022-10-15T23:33:52;17.40;99.90
4596;DHT22;2310;49.978;8.742;2022-10-15T23:37:53;17.30;99.90
4596;DHT22;2310;49.978;8.742;2022-10-15T23:41:55;17.30;99.90
4596;DHT22;2310;49.978;8.742;2022-10-15T23:45:56;17.40;99.90
4596;DHT22;2310;49.978;8.742;2022-10-15T23:49:58;17.30;99.90
4596;DHT22;2310;49.978;8.742;2022-10-15T23:54:00;17.30;99.90
4596;DHT22;2310;49.978;8.742;2022-10-15T23:58:02;17.40;99.90
